Terminal Aerodrome Forecast
Issued by NWS

Home | Current Version | Previous Version | Text Only | Print | Product List | Glossary On
Versions: 1 2 3 4 5 6 7 8 9 10 11 12 13 14 15 16 17 18 19 20
250
FTUS41 KPBZ 090858 AAB
TAFHLG
TAF AMD
KHLG 090858Z 0909/1006 19004KT 2SM -SN BR OVC004
     FM091200 29005KT 3SM -SHSN OVC008
      TEMPO 0913/0916 1/2SM SHSN BKN004
     FM092200 30008KT P6SM BKN025=

USA.gov is the U.S. government's official web portal to all federal, state and local government web resources and services.